Terminal Aerodrome Forecast
Issued by NWS Northern Indiana

Home | Current Version | Previous Version | Graphics & Text | Print | Product List | Glossary On
Versions: 1 2 3 4 5 6 7 8 9 10 11 12
000
FTUS43 KIWX 191100
TAFFWA
TAF
KFWA 191130Z 1912/2012 30012KT P6SM OVC035
      TEMPO 1912/1916 OVC028
     FM191600 31012G19KT P6SM BKN035
     FM192300 31011KT P6SM SCT035
     FM200400 34006KT P6SM SCT200=

USA.gov is the U.S. government's official web portal to all federal, state and local government web resources and services.